createdAt,value
2018-06-01T00:01:41.007Z,17.36
2018-06-01T00:06:34.296Z,17.37
2018-06-01T00:11:27.592Z,17.53
2018-06-01T00:16:20.873Z,17.46
2018-06-01T00:21:14.175Z,17.39
2018-06-01T00:26:08.237Z,17.41
2018-06-01T00:31:01.593Z,17.41
2018-06-01T00:35:54.878Z,17.42
2018-06-01T00:40:48.163Z,17.47
2018-06-01T00:45:41.434Z,17.45
2018-06-01T00:50:34.717Z,17.43
2018-06-01T00:55:28.009Z,17.44
2018-06-01T01:00:21.301Z,17.39
2018-06-01T01:05:15.395Z,17.18
2018-06-01T01:10:09.493Z,17.14
2018-06-01T01:15:03.533Z,16.98
2018-06-01T01:19:56.833Z,16.98
2018-06-01T01:24:50.112Z,16.96
2018-06-01T01:29:43.409Z,16.95
2018-06-01T01:34:36.686Z,16.97
2018-06-01T01:39:29.981Z,16.96
2018-06-01T01:44:24.023Z,16.79
2018-06-01T01:49:17.314Z,16.72
2018-06-01T01:54:10.609Z,16.60
2018-06-01T01:59:03.926Z,16.60
2018-06-01T02:03:57.213Z,16.54
2018-06-01T02:08:50.520Z,16.53
2018-06-01T02:13:43.800Z,16.62
2018-06-01T02:18:37.084Z,16.57
2018-06-01T02:23:30.377Z,16.56
2018-06-01T02:28:23.652Z,16.64
2018-06-01T02:33:16.949Z,16.64
2018-06-01T02:38:10.233Z,16.47
2018-06-01T02:43:04.289Z,16.51
2018-06-01T02:47:57.593Z,16.41
2018-06-01T02:52:51.653Z,16.40
2018-06-01T02:57:44.952Z,16.43
2018-06-01T03:02:38.233Z,16.49
2018-06-01T03:07:31.529Z,16.43
2018-06-01T03:12:25.590Z,16.41
2018-06-01T03:17:18.886Z,16.48
2018-06-01T03:22:12.179Z,16.61
2018-06-01T03:27:06.254Z,16.61
2018-06-01T03:31:59.533Z,16.46
2018-06-01T03:36:52.824Z,16.49
2018-06-01T03:41:46.888Z,16.52
2018-06-01T03:46:40.179Z,16.49
2018-06-01T03:51:33.481Z,16.52
2018-06-01T03:56:27.572Z,16.60
2018-06-01T04:01:21.633Z,16.70
2018-06-01T04:06:14.931Z,16.71
2018-06-01T04:11:08.221Z,16.74
2018-06-01T04:16:02.296Z,16.80
2018-06-01T04:20:55.590Z,16.85
2018-06-01T04:25:49.643Z,16.87
2018-06-01T04:30:42.964Z,17.82
2018-06-01T04:35:37.028Z,20.17
2018-06-01T04:40:30.339Z,21.85
2018-06-01T04:45:23.620Z,22.83
2018-06-01T04:50:17.666Z,23.30
2018-06-01T04:55:10.957Z,23.80
2018-06-01T05:00:04.258Z,24.42
2018-06-01T05:04:57.571Z,24.97
2018-06-01T05:09:50.870Z,25.90
2018-06-01T05:14:44.166Z,25.95
2018-06-01T05:19:37.479Z,26.86
2018-06-01T05:24:31.537Z,27.35
2018-06-01T05:29:24.838Z,27.99
2018-06-01T05:34:18.137Z,28.36
2018-06-01T05:39:13.977Z,28.92
2018-06-01T05:44:08.054Z,29.44
2018-06-01T05:49:02.143Z,29.34
2018-06-01T05:53:55.441Z,29.09
2018-06-01T05:58:49.531Z,28.97
2018-06-01T06:03:43.610Z,28.82
2018-06-01T06:08:36.914Z,28.78
2018-06-01T06:13:31.014Z,28.88
2018-06-01T06:18:24.335Z,28.88
2018-06-01T06:23:17.625Z,28.44
2018-06-01T06:28:10.917Z,28.19
2018-06-01T06:33:04.282Z,28.31
2018-06-01T06:37:57.839Z,28.19
2018-06-01T06:42:51.160Z,27.93
2018-06-01T06:47:44.458Z,28.03
2018-06-01T06:52:38.513Z,28.01
2018-06-01T06:57:31.933Z,27.91
2018-06-01T07:02:25.970Z,27.15
2018-06-01T07:07:19.485Z,27.05
2018-06-01T07:12:13.594Z,26.97
2018-06-01T07:17:06.876Z,26.99
2018-06-01T07:22:00.930Z,26.83
2018-06-01T07:26:54.233Z,26.84
2018-06-01T07:31:48.048Z,26.31
2018-06-01T07:36:42.101Z,25.81
2018-06-01T07:41:35.390Z,25.74
2018-06-01T07:46:28.674Z,25.40
2018-06-01T07:51:21.958Z,25.36
2018-06-01T07:56:15.250Z,25.06
2018-06-01T08:01:09.288Z,25.44
2018-06-01T08:06:02.581Z,25.72
2018-06-01T08:10:55.877Z,25.79
2018-06-01T08:15:49.145Z,25.84
2018-06-01T08:20:42.434Z,26.03
2018-06-01T08:25:36.523Z,25.03
2018-06-01T08:30:29.801Z,25.13
2018-06-01T08:35:23.114Z,25.48
2018-06-01T08:40:17.256Z,24.85
2018-06-01T08:45:10.542Z,24.39
2018-06-01T08:50:07.054Z,24.88
2018-06-01T08:55:00.349Z,24.65
2018-06-01T08:59:53.634Z,24.81
2018-06-01T09:04:46.914Z,24.39
2018-06-01T09:09:40.198Z,24.95
2018-06-01T09:14:33.489Z,24.53
2018-06-01T09:19:26.768Z,24.72
2018-06-01T09:24:20.063Z,24.44
2018-06-01T09:29:16.965Z,24.79
2018-06-01T09:34:10.250Z,24.49
2018-06-01T09:39:03.541Z,25.04
2018-06-01T09:43:56.820Z,25.22
2018-06-01T09:48:50.185Z,25.42
2018-06-01T09:53:43.469Z,25.25
2018-06-01T09:58:36.752Z,24.92
2018-06-01T10:03:30.038Z,25.05
2018-06-01T10:08:23.322Z,25.25
2018-06-01T10:13:16.603Z,25.10
2018-06-01T10:18:09.880Z,24.95
2018-06-01T10:23:03.172Z,25.41
2018-06-01T10:27:56.437Z,25.39
2018-06-01T10:32:49.712Z,24.94
2018-06-01T10:37:42.989Z,25.47
2018-06-01T10:42:36.269Z,25.25
2018-06-01T10:47:29.539Z,24.90
2018-06-01T10:52:22.816Z,24.76
2018-06-01T10:57:16.270Z,25.11
2018-06-01T11:02:10.806Z,25.03
2018-06-01T11:07:04.168Z,25.15
2018-06-01T11:11:57.586Z,25.42
2018-06-01T11:16:51.779Z,26.01
2018-06-01T11:21:45.867Z,26.18
2018-06-01T11:26:40.019Z,25.32
2018-06-01T11:31:33.462Z,25.08
2018-06-01T11:36:26.814Z,25.37
2018-06-01T11:41:20.171Z,25.85
2018-06-01T11:46:15.273Z,26.64
2018-06-01T11:51:08.571Z,26.86
2018-06-01T11:56:08.029Z,27.00
2018-06-01T12:01:07.623Z,26.80
2018-06-01T12:06:05.370Z,26.73
2018-06-01T12:10:58.927Z,26.42
2018-06-01T12:15:52.861Z,26.63
2018-06-01T12:20:46.416Z,25.65
2018-06-01T12:25:40.229Z,25.73
2018-06-01T12:30:33.659Z,25.99
2018-06-01T12:35:27.804Z,25.98
2018-06-01T12:40:21.129Z,25.99
2018-06-01T12:45:14.522Z,26.00
2018-06-01T12:50:08.644Z,26.03
2018-06-01T12:55:02.555Z,26.01
2018-06-01T12:59:55.877Z,25.89
2018-06-01T13:04:49.966Z,26.13
2018-06-01T13:09:43.302Z,26.81
2018-06-01T13:14:36.601Z,27.03
2018-06-01T13:19:31.883Z,26.93
2018-06-01T13:24:25.553Z,27.01
2018-06-01T13:29:18.909Z,27.08
2018-06-01T13:34:12.253Z,26.09
2018-06-01T13:39:07.323Z,26.16
2018-06-01T13:44:00.634Z,26.71
2018-06-01T13:48:53.927Z,27.06
2018-06-01T13:53:47.250Z,26.79
2018-06-01T13:58:42.183Z,27.06
2018-06-01T14:03:36.234Z,27.19
2018-06-01T14:08:29.542Z,27.08
2018-06-01T14:13:22.850Z,27.15
2018-06-01T14:18:16.153Z,26.49
2018-06-01T14:23:09.460Z,26.45
2018-06-01T14:28:03.620Z,26.54
2018-06-01T14:32:57.076Z,26.28
2018-06-01T14:37:51.357Z,26.03
2018-06-01T14:42:44.879Z,26.45
2018-06-01T14:47:38.244Z,26.40
2018-06-01T14:52:31.544Z,26.59
2018-06-01T14:57:25.071Z,26.26
2018-06-01T15:02:18.385Z,26.48
2018-06-01T15:07:11.690Z,27.02
2018-06-01T15:12:05.010Z,26.91
2018-06-01T15:16:58.292Z,26.81
2018-06-01T15:21:52.562Z,26.94
2018-06-01T15:26:45.873Z,26.68
2018-06-01T15:31:39.950Z,27.03
2018-06-01T15:36:33.246Z,26.72
2018-06-01T15:41:27.339Z,27.11
2018-06-01T15:46:20.645Z,27.03
2018-06-01T15:51:13.962Z,26.92
2018-06-01T15:56:07.297Z,26.84
2018-06-01T16:01:00.595Z,26.92
2018-06-01T16:05:53.926Z,26.82
2018-06-01T16:10:47.277Z,27.12
2018-06-01T16:15:40.663Z,27.04
2018-06-01T16:20:33.989Z,27.01
2018-06-01T16:25:27.326Z,26.91
2018-06-01T16:30:20.652Z,27.04
2018-06-01T16:35:13.999Z,26.95
2018-06-01T16:40:07.309Z,26.79
2018-06-01T16:45:00.655Z,26.73
2018-06-01T16:49:54.759Z,26.39
2018-06-01T16:54:48.857Z,26.55
2018-06-01T16:59:44.415Z,26.34
2018-06-01T17:04:37.726Z,26.29
2018-06-01T17:09:31.010Z,26.35
2018-06-01T17:14:24.298Z,26.37
2018-06-01T17:19:17.598Z,26.46
2018-06-01T17:24:11.402Z,26.41
2018-06-01T17:29:05.466Z,26.39
2018-06-01T17:33:58.780Z,26.41
2018-06-01T17:38:52.255Z,26.22
2018-06-01T17:43:45.609Z,26.17
2018-06-01T17:48:39.426Z,25.98
2018-06-01T17:53:33.477Z,25.68
2018-06-01T17:58:26.798Z,25.60
2018-06-01T18:03:20.142Z,25.46
2018-06-01T18:08:13.478Z,25.21
2018-06-01T18:13:06.828Z,24.90
2018-06-01T18:18:00.125Z,24.74
2018-06-01T18:22:53.453Z,24.76
2018-06-01T18:27:46.769Z,24.71
2018-06-01T18:32:40.822Z,24.50
2018-06-01T18:37:34.122Z,24.34
2018-06-01T18:42:28.190Z,24.19
2018-06-01T18:47:21.488Z,24.06
2018-06-01T18:52:14.784Z,23.95
2018-06-01T18:57:08.139Z,23.78
2018-06-01T19:02:01.441Z,24.17
2018-06-01T19:06:55.534Z,23.96
2018-06-01T19:11:49.654Z,23.63
2018-06-01T19:16:42.973Z,23.39
2018-06-01T19:21:36.305Z,23.23
2018-06-01T19:26:29.600Z,23.11
2018-06-01T19:31:22.886Z,23.02
2018-06-01T19:36:16.192Z,22.95
2018-06-01T19:41:09.481Z,22.89
2018-06-01T19:46:02.788Z,22.85
2018-06-01T19:50:57.058Z,22.76
2018-06-01T19:55:50.354Z,22.65
2018-06-01T20:00:44.458Z,22.60
2018-06-01T20:05:38.505Z,22.45
2018-06-01T20:10:31.797Z,22.35
2018-06-01T20:15:25.111Z,22.25
2018-06-01T20:20:18.430Z,22.03
2018-06-01T20:25:11.965Z,21.98
2018-06-01T20:30:06.013Z,21.75
2018-06-01T20:34:59.306Z,21.74
2018-06-01T20:39:52.600Z,21.45
2018-06-01T20:44:45.865Z,21.35
2018-06-01T20:49:39.144Z,21.26
2018-06-01T20:54:32.436Z,21.14
2018-06-01T20:59:26.491Z,21.02
2018-06-01T21:04:19.892Z,20.94
2018-06-01T21:09:13.173Z,20.85
2018-06-01T21:14:06.457Z,20.81
2018-06-01T21:18:59.738Z,20.68
2018-06-01T21:23:53.029Z,20.62
2018-06-01T21:37:56.383Z,20.39
2018-06-01T21:42:49.682Z,20.37
2018-06-01T21:47:42.968Z,20.36
2018-06-01T21:52:37.030Z,20.23
2018-06-01T21:57:30.315Z,20.20
2018-06-01T22:02:23.609Z,20.18
2018-06-01T22:07:17.705Z,20.11
2018-06-01T22:12:11.041Z,20.11
2018-06-01T22:17:04.340Z,19.99
2018-06-01T22:21:57.635Z,19.94
2018-06-01T22:26:50.917Z,19.83
2018-06-01T22:31:44.212Z,19.71
2018-06-01T22:36:37.519Z,19.65
2018-06-01T22:41:30.819Z,19.58
2018-06-01T22:46:24.124Z,19.52
2018-06-01T22:51:18.169Z,19.48
2018-06-01T22:56:11.534Z,19.37
2018-06-01T23:01:04.875Z,19.32
2018-06-01T23:05:58.944Z,19.25
2018-06-01T23:10:58.854Z,19.19
2018-06-01T23:15:52.235Z,19.14
2018-06-01T23:20:45.573Z,19.05
2018-06-01T23:25:39.622Z,18.99
2018-06-01T23:30:32.905Z,18.91
2018-06-01T23:35:26.211Z,18.87
2018-06-01T23:40:20.268Z,18.82
2018-06-01T23:45:13.556Z,18.68
2018-06-01T23:50:06.838Z,18.59
2018-06-01T23:55:00.125Z,18.50
2018-06-01T23:59:53.421Z,18.42
